createdAt,value
2024-02-13T00:00:41.783Z,24.53
2024-02-13T00:01:41.896Z,24.50
2024-02-13T00:02:42.112Z,24.53
2024-02-13T00:03:41.996Z,24.53
2024-02-13T00:04:42.062Z,24.53
2024-02-13T00:05:42.079Z,24.53
2024-02-13T00:06:42.141Z,24.50
2024-02-13T00:07:42.194Z,24.52
2024-02-13T00:08:45.742Z,24.52
2024-02-13T00:09:42.277Z,24.50
2024-02-13T00:10:42.253Z,24.52
2024-02-13T00:11:42.316Z,24.50
2024-02-13T00:12:42.299Z,24.53
2024-02-13T00:13:42.271Z,24.52
2024-02-13T00:14:43.703Z,24.52
2024-02-13T00:15:42.283Z,24.49
2024-02-13T00:16:42.223Z,24.52
2024-02-13T00:17:42.450Z,24.50
2024-02-13T00:18:42.313Z,24.50
2024-02-13T00:19:42.357Z,24.49
2024-02-13T00:20:42.285Z,24.49
2024-02-13T00:21:42.264Z,24.50
2024-02-13T00:22:42.286Z,24.50
2024-02-13T00:23:42.355Z,24.49
2024-02-13T00:24:42.276Z,24.50
2024-02-13T00:25:42.285Z,24.50
2024-02-13T00:26:42.319Z,24.50
2024-02-13T00:27:42.266Z,24.49
2024-02-13T00:28:42.318Z,24.49
2024-02-13T00:29:42.375Z,24.50
2024-02-13T00:30:42.284Z,24.49
2024-02-13T00:31:42.285Z,24.49
2024-02-13T00:32:42.379Z,24.52
2024-02-13T00:33:42.462Z,24.52
2024-02-13T00:34:42.465Z,24.49
2024-02-13T00:35:42.388Z,24.50
2024-02-13T00:36:42.319Z,24.49
2024-02-13T00:37:42.269Z,24.49
2024-02-13T00:38:42.320Z,24.49
2024-02-13T00:39:42.287Z,24.49
2024-02-13T00:40:42.295Z,24.47
2024-02-13T00:41:42.306Z,24.50
2024-02-13T00:42:42.292Z,24.46
2024-02-13T00:43:42.352Z,24.50
2024-02-13T00:44:42.354Z,24.49
2024-02-13T00:45:42.324Z,24.47
2024-02-13T00:46:42.335Z,24.47
2024-02-13T00:47:42.671Z,24.49
2024-02-13T00:48:42.538Z,24.50
2024-02-13T00:49:42.395Z,24.47
2024-02-13T00:50:42.433Z,24.49
2024-02-13T00:51:42.471Z,24.50
2024-02-13T00:52:42.516Z,24.47
2024-02-13T00:53:42.684Z,24.49
2024-02-13T00:54:42.704Z,24.47
2024-02-13T00:55:42.742Z,24.49
2024-02-13T00:56:42.924Z,24.49
2024-02-13T00:57:42.916Z,24.49
2024-02-13T00:58:43.015Z,24.46
2024-02-13T00:59:43.085Z,24.47
2024-02-13T01:00:43.103Z,24.49
2024-02-13T01:01:43.209Z,24.49
2024-02-13T01:02:43.340Z,24.47
2024-02-13T01:03:43.461Z,24.49
2024-02-13T01:04:43.381Z,24.49
2024-02-13T01:05:43.471Z,24.47
2024-02-13T01:06:43.521Z,24.46
2024-02-13T01:07:43.547Z,24.47
2024-02-13T01:08:43.703Z,24.49
2024-02-13T01:09:43.729Z,24.46
2024-02-13T01:10:43.803Z,24.49
2024-02-13T01:11:43.909Z,24.49
2024-02-13T01:12:43.940Z,24.46
2024-02-13T01:13:44.015Z,24.44
2024-02-13T01:14:44.146Z,24.47
2024-02-13T01:15:44.121Z,24.47
2024-02-13T01:16:44.212Z,24.47
2024-02-13T01:17:44.356Z,24.47
2024-02-13T01:18:44.439Z,24.47
2024-02-13T01:19:44.455Z,24.46
2024-02-13T01:20:44.534Z,24.47
2024-02-13T01:21:44.568Z,24.46
2024-02-13T01:22:44.587Z,24.46
2024-02-13T01:23:44.732Z,24.47
2024-02-13T01:24:44.744Z,24.44
2024-02-13T01:25:44.797Z,24.47
2024-02-13T01:26:44.937Z,24.46
2024-02-13T01:27:44.971Z,24.46
2024-02-13T01:28:45.013Z,24.46
2024-02-13T01:29:45.238Z,24.46
2024-02-13T01:30:45.202Z,24.46
2024-02-13T01:31:45.247Z,24.46
2024-02-13T01:32:45.344Z,24.44
2024-02-13T01:33:45.580Z,24.43
2024-02-13T01:34:45.583Z,24.44
2024-02-13T01:35:45.502Z,24.44
2024-02-13T01:36:45.585Z,24.44
2024-02-13T01:37:45.671Z,24.44
2024-02-13T01:38:45.750Z,24.44
2024-02-13T01:39:45.808Z,24.44
2024-02-13T01:40:45.852Z,24.44
2024-02-13T01:41:45.958Z,24.43
2024-02-13T01:42:45.998Z,24.44
2024-02-13T01:43:46.073Z,24.44
2024-02-13T01:44:46.246Z,24.43
2024-02-13T01:45:46.196Z,24.44
2024-02-13T01:46:46.285Z,24.46
2024-02-13T01:47:46.598Z,24.46
2024-02-13T01:48:46.570Z,24.43
2024-02-13T01:49:46.497Z,24.44
2024-02-13T01:50:46.600Z,24.44
2024-02-13T01:51:46.627Z,24.46
2024-02-13T01:52:46.720Z,24.42
2024-02-13T01:53:46.813Z,24.42
2024-02-13T01:54:46.845Z,24.47
2024-02-13T01:55:46.903Z,24.44
2024-02-13T01:56:47.029Z,24.42
2024-02-13T01:57:47.015Z,24.44
2024-02-13T01:58:47.100Z,24.43
2024-02-13T01:59:47.227Z,24.42
2024-02-13T02:00:47.338Z,24.44
2024-02-13T02:01:47.329Z,24.43
2024-02-13T02:02:47.453Z,24.43
2024-02-13T02:03:47.456Z,24.43
2024-02-13T02:04:47.555Z,24.44
2024-02-13T02:05:47.737Z,24.40
2024-02-13T02:06:47.702Z,24.43
2024-02-13T02:07:47.736Z,24.43
2024-02-13T02:08:47.889Z,24.43
2024-02-13T02:09:47.895Z,24.42
2024-02-13T02:10:47.972Z,24.43
2024-02-13T02:11:48.135Z,24.42
2024-02-13T02:12:48.080Z,24.43
2024-02-13T02:13:48.156Z,24.42
2024-02-13T02:14:48.349Z,24.44
2024-02-13T02:15:48.313Z,24.43
2024-02-13T02:16:48.359Z,24.40
2024-02-13T02:17:48.564Z,24.43
2024-02-13T02:18:48.644Z,24.42
2024-02-13T02:19:48.592Z,24.42
2024-02-13T02:20:51.296Z,24.42
2024-02-13T02:21:48.634Z,24.42
2024-02-13T02:22:48.773Z,24.46
2024-02-13T02:23:48.735Z,24.42
2024-02-13T02:24:48.828Z,24.43
2024-02-13T02:25:48.728Z,24.42
2024-02-13T02:26:48.711Z,24.40
2024-02-13T02:27:48.710Z,24.43
2024-02-13T02:28:48.781Z,24.43
2024-02-13T02:29:48.861Z,24.40
2024-02-13T02:30:48.773Z,24.40
2024-02-13T02:31:48.728Z,24.43
2024-02-13T02:32:49.086Z,24.43
2024-02-13T02:33:48.821Z,24.39
2024-02-13T02:34:48.789Z,24.42
2024-02-13T02:35:48.690Z,24.40
2024-02-13T02:36:48.809Z,24.42
2024-02-13T02:37:48.754Z,24.43
2024-02-13T02:38:48.809Z,24.42
2024-02-13T02:39:48.809Z,24.42
2024-02-13T02:40:48.661Z,24.40
2024-02-13T02:41:48.702Z,24.39
2024-02-13T02:42:48.677Z,24.39
2024-02-13T02:43:48.789Z,24.43
2024-02-13T02:44:48.899Z,24.42
2024-02-13T02:45:48.835Z,24.42
2024-02-13T02:46:48.655Z,24.42
2024-02-13T02:47:48.774Z,24.40
2024-02-13T02:48:48.753Z,24.42
2024-02-13T02:49:48.880Z,24.40
2024-02-13T02:50:48.873Z,24.39
2024-02-13T02:51:48.730Z,24.42
2024-02-13T02:52:48.743Z,24.42
2024-02-13T02:53:48.783Z,24.39
2024-02-13T02:54:48.742Z,24.39
2024-02-13T02:55:48.876Z,24.40
2024-02-13T02:56:48.891Z,24.39
2024-02-13T02:57:48.814Z,24.37
2024-02-13T02:58:48.899Z,24.40
2024-02-13T02:59:49.087Z,24.39
2024-02-13T03:00:49.070Z,24.40
2024-02-13T03:01:49.082Z,24.40
2024-02-13T03:02:49.368Z,24.40
2024-02-13T03:03:49.255Z,24.42
2024-02-13T03:04:49.325Z,24.39
2024-02-13T03:05:49.455Z,24.42
2024-02-13T03:06:49.552Z,24.40
2024-02-13T03:07:49.517Z,24.37
2024-02-13T03:08:49.545Z,24.42
2024-02-13T03:09:49.624Z,24.40
2024-02-13T03:10:49.647Z,24.37
2024-02-13T03:11:49.751Z,24.39
2024-02-13T03:12:49.792Z,24.37
2024-02-13T03:13:49.896Z,24.39
2024-02-13T03:14:50.107Z,24.39
2024-02-13T03:15:49.978Z,24.37
2024-02-13T03:16:50.028Z,24.39
2024-02-13T03:17:50.087Z,24.42
2024-02-13T03:18:50.199Z,24.37
2024-02-13T03:19:50.169Z,24.39
2024-02-13T03:20:50.180Z,24.37
2024-02-13T03:21:50.840Z,24.39
2024-02-13T03:22:50.241Z,24.40
2024-02-13T03:23:50.388Z,24.39
2024-02-13T03:24:50.378Z,24.37
2024-02-13T03:25:50.443Z,24.39
2024-02-13T03:26:50.480Z,24.37
2024-02-13T03:27:50.484Z,24.37
2024-02-13T03:28:50.601Z,24.39
2024-02-13T03:29:50.736Z,24.37
2024-02-13T03:30:50.644Z,24.37
2024-02-13T03:31:50.689Z,24.37
2024-02-13T03:32:50.885Z,24.36
2024-02-13T03:33:50.852Z,24.36
2024-02-13T03:34:50.846Z,24.36
2024-02-13T03:35:50.881Z,24.36
2024-02-13T03:36:50.958Z,24.34
2024-02-13T03:37:50.978Z,24.36
2024-02-13T03:38:51.162Z,24.36
2024-02-13T03:39:51.114Z,24.36
2024-02-13T03:40:51.151Z,24.39
2024-02-13T03:41:51.250Z,24.39
2024-02-13T03:42:51.270Z,24.37
2024-02-13T03:43:51.355Z,24.37
2024-02-13T03:44:51.485Z,24.36
2024-02-13T03:45:51.485Z,24.39
2024-02-13T03:46:51.509Z,24.36
2024-02-13T03:47:51.632Z,24.36
2024-02-13T03:48:51.641Z,24.37
2024-02-13T03:49:51.696Z,24.36
2024-02-13T03:50:51.745Z,24.36
2024-02-13T03:51:51.773Z,24.34
2024-02-13T03:52:51.830Z,24.34
2024-02-13T03:53:51.898Z,24.36
2024-02-13T03:54:51.908Z,24.37
2024-02-13T03:55:51.980Z,24.34
2024-02-13T03:56:52.045Z,24.34
2024-02-13T03:57:52.123Z,24.36
2024-02-13T03:58:52.112Z,24.37
2024-02-13T03:59:52.226Z,24.36
2024-02-13T04:00:52.273Z,24.36
2024-02-13T04:01:52.298Z,24.36
2024-02-13T04:02:52.553Z,24.34
2024-02-13T04:03:52.463Z,24.37
2024-02-13T04:04:52.487Z,24.36
2024-02-13T04:05:52.636Z,24.36
2024-02-13T04:06:52.606Z,24.34
2024-02-13T04:07:52.626Z,24.39
2024-02-13T04:08:52.718Z,24.33
2024-02-13T04:09:52.751Z,24.36
2024-02-13T04:10:52.817Z,24.33
2024-02-13T04:11:52.938Z,24.33
2024-02-13T04:12:52.907Z,24.36
2024-02-13T04:13:52.974Z,24.33
2024-02-13T04:14:53.106Z,24.36
2024-02-13T04:15:55.772Z,24.36
2024-02-13T04:16:53.107Z,24.34
2024-02-13T04:17:53.166Z,24.34
2024-02-13T04:18:53.153Z,24.36
2024-02-13T04:19:53.124Z,24.36
2024-02-13T04:20:53.139Z,24.33
2024-02-13T04:21:53.096Z,24.33
2024-02-13T04:22:53.105Z,24.34
2024-02-13T04:23:53.222Z,24.36
2024-02-13T04:24:53.132Z,24.33
2024-02-13T04:25:53.105Z,24.37
2024-02-13T04:26:53.144Z,24.34
2024-02-13T04:27:53.110Z,24.33
2024-02-13T04:28:53.127Z,24.33
2024-02-13T04:29:53.173Z,24.33
2024-02-13T04:31:00.370Z,24.32
2024-02-13T04:32:07.701Z,24.32
2024-02-13T04:33:07.733Z,24.32
2024-02-13T04:34:08.130Z,24.29
2024-02-13T04:35:07.677Z,24.32
2024-02-13T04:36:07.610Z,24.33
2024-02-13T04:37:07.610Z,24.34
2024-02-13T04:38:07.612Z,24.30
2024-02-13T04:39:07.628Z,24.30
2024-02-13T04:40:07.642Z,24.33
2024-02-13T04:41:07.609Z,24.33
2024-02-13T04:42:07.660Z,24.33
2024-02-13T04:43:08.283Z,24.33
2024-02-13T04:44:07.616Z,24.33
2024-02-13T04:45:07.746Z,24.32
2024-02-13T04:46:07.604Z,24.30
2024-02-13T04:47:07.628Z,24.33
2024-02-13T04:48:07.730Z,24.32
2024-02-13T04:49:07.934Z,24.34
2024-02-13T04:50:07.647Z,24.32
2024-02-13T04:51:07.643Z,24.32
2024-02-13T04:52:07.620Z,24.32
2024-02-13T04:53:07.638Z,24.33
2024-02-13T04:54:07.640Z,24.33
2024-02-13T04:55:07.627Z,24.32
2024-02-13T04:56:07.635Z,24.33
2024-02-13T04:57:07.684Z,24.33
2024-02-13T04:58:07.669Z,24.33
2024-02-13T04:59:07.682Z,24.32
2024-02-13T05:00:07.663Z,24.30
2024-02-13T05:01:07.627Z,24.32
2024-02-13T05:02:07.660Z,24.29
2024-02-13T05:03:07.666Z,24.34
2024-02-13T05:04:07.661Z,24.32
2024-02-13T05:05:07.682Z,24.30
2024-02-13T05:06:07.773Z,24.32
2024-02-13T05:07:07.637Z,24.30
2024-02-13T05:08:07.707Z,24.32
2024-02-13T05:09:07.655Z,24.32
2024-02-13T05:10:07.688Z,24.30
2024-02-13T05:11:07.642Z,24.30
2024-02-13T05:12:07.657Z,24.30
2024-02-13T05:13:07.674Z,24.30
2024-02-13T05:14:07.648Z,24.30
2024-02-13T05:15:07.718Z,24.30
2024-02-13T05:16:07.686Z,24.32
2024-02-13T05:17:07.685Z,24.30
2024-02-13T05:18:07.863Z,24.30
2024-02-13T05:19:07.932Z,24.29
2024-02-13T05:20:07.812Z,24.30
2024-02-13T05:21:07.833Z,24.30
2024-02-13T05:22:07.885Z,24.30
2024-02-13T05:23:07.909Z,24.30
2024-02-13T05:24:07.953Z,24.32
2024-02-13T05:25:08.015Z,24.32
2024-02-13T05:26:07.987Z,24.32
2024-02-13T05:27:08.008Z,24.32
2024-02-13T05:28:08.067Z,24.32
2024-02-13T05:29:08.101Z,24.30
2024-02-13T05:30:08.148Z,24.32
2024-02-13T05:31:08.155Z,24.27
2024-02-13T05:32:08.214Z,24.29
2024-02-13T05:33:08.352Z,24.30
2024-02-13T05:34:08.531Z,24.30
2024-02-13T05:35:08.356Z,24.32
2024-02-13T05:36:08.395Z,24.30
2024-02-13T05:37:08.439Z,24.30
2024-02-13T05:38:08.458Z,24.30
2024-02-13T05:39:08.520Z,24.32
2024-02-13T05:40:08.567Z,24.29
2024-02-13T05:41:08.570Z,24.29
2024-02-13T05:42:08.586Z,24.30
2024-02-13T05:43:08.628Z,24.30
2024-02-13T05:44:08.649Z,24.32
2024-02-13T05:45:08.671Z,24.30
2024-02-13T05:46:08.722Z,24.29
2024-02-13T05:47:08.729Z,24.29
2024-02-13T05:48:08.858Z,24.27
2024-02-13T05:49:08.895Z,24.32
2024-02-13T05:50:08.909Z,24.29
2024-02-13T05:51:08.813Z,24.30
2024-02-13T05:52:08.861Z,24.29
2024-02-13T05:53:08.870Z,24.29
2024-02-13T05:54:08.929Z,24.32
2024-02-13T05:55:08.949Z,24.27
2024-02-13T05:56:08.968Z,24.29
2024-02-13T05:57:09.046Z,24.30
2024-02-13T05:58:09.045Z,24.27
2024-02-13T05:59:09.009Z,24.29
2024-02-13T06:00:10.953Z,24.29
2024-02-13T06:01:09.228Z,24.27
2024-02-13T06:02:09.133Z,24.27
2024-02-13T06:03:09.225Z,24.29
2024-02-13T06:04:09.244Z,24.27
2024-02-13T06:05:09.240Z,24.29
2024-02-13T06:06:09.288Z,24.26
2024-02-13T06:07:09.295Z,24.27
2024-02-13T06:08:09.257Z,24.26
2024-02-13T06:09:09.287Z,24.30
2024-02-13T06:10:09.327Z,24.29
2024-02-13T06:11:09.354Z,24.27
2024-02-13T06:12:09.400Z,24.27
2024-02-13T06:13:09.363Z,24.29
2024-02-13T06:14:09.352Z,24.26
2024-02-13T06:15:09.391Z,24.27
2024-02-13T06:16:09.397Z,24.29
2024-02-13T06:17:09.432Z,24.30
2024-02-13T06:18:09.575Z,24.27
2024-02-13T06:19:09.487Z,24.27
2024-02-13T06:20:09.673Z,24.27
2024-02-13T06:21:09.496Z,24.27
2024-02-13T06:22:09.492Z,24.26
2024-02-13T06:23:09.543Z,24.30
2024-02-13T06:24:09.570Z,24.27
2024-02-13T06:25:09.612Z,24.27
2024-02-13T06:26:09.560Z,24.27
2024-02-13T06:27:09.669Z,24.27
2024-02-13T06:28:09.628Z,24.27
2024-02-13T06:29:09.664Z,24.27
2024-02-13T06:30:09.677Z,24.26
2024-02-13T06:31:09.703Z,24.26
2024-02-13T06:32:09.683Z,24.27
2024-02-13T06:33:09.999Z,24.26
2024-02-13T06:34:09.787Z,24.25
2024-02-13T06:35:09.770Z,24.29
2024-02-13T06:36:09.734Z,24.27
2024-02-13T06:37:09.764Z,24.26
2024-02-13T06:38:09.766Z,24.30
2024-02-13T06:39:09.804Z,24.29
2024-02-13T06:40:09.797Z,24.27
2024-02-13T06:41:09.834Z,24.26
2024-02-13T06:42:09.896Z,24.26
2024-02-13T06:43:09.861Z,24.26
2024-02-13T06:44:09.857Z,24.27
2024-02-13T06:45:10.342Z,24.27
2024-02-13T06:46:09.911Z,24.26
2024-02-13T06:47:09.976Z,24.27
2024-02-13T06:48:09.979Z,24.27
2024-02-13T06:49:09.992Z,24.26
2024-02-13T06:50:10.010Z,24.29
2024-02-13T06:51:09.970Z,24.26
2024-02-13T06:52:09.978Z,24.27
2024-02-13T06:53:10.015Z,24.26
2024-02-13T06:54:10.026Z,24.25
2024-02-13T06:55:10.085Z,24.26
2024-02-13T06:56:10.068Z,24.27
2024-02-13T06:57:10.086Z,24.25
2024-02-13T06:58:10.116Z,24.29
2024-02-13T06:59:10.141Z,24.26
2024-02-13T07:00:10.239Z,24.26
2024-02-13T07:01:10.409Z,24.26
2024-02-13T07:02:10.211Z,24.29
2024-02-13T07:03:10.223Z,24.25
2024-02-13T07:04:10.318Z,24.26
2024-02-13T07:05:10.455Z,24.27
2024-02-13T07:06:10.408Z,24.27
2024-02-13T07:07:25.343Z,24.26
2024-02-13T07:08:11.323Z,24.25
2024-02-13T07:09:10.472Z,24.26
2024-02-13T07:10:10.391Z,24.27
2024-02-13T07:11:10.285Z,24.25
2024-02-13T07:12:10.268Z,24.26
2024-02-13T07:13:10.276Z,24.25
2024-02-13T07:14:10.273Z,24.27
2024-02-13T07:15:10.630Z,24.27
2024-02-13T07:16:10.266Z,24.25
2024-02-13T07:17:10.305Z,24.25
2024-02-13T07:18:10.372Z,24.26
2024-02-13T07:19:10.500Z,24.25
2024-02-13T07:20:10.313Z,24.25
2024-02-13T07:21:10.314Z,24.27
2024-02-13T07:22:10.298Z,24.25
2024-02-13T07:23:10.357Z,24.26
2024-02-13T07:24:10.350Z,24.25
2024-02-13T07:25:10.322Z,24.25
2024-02-13T07:26:10.332Z,24.27
2024-02-13T07:27:10.284Z,24.25
2024-02-13T07:28:10.317Z,24.27
2024-02-13T07:29:10.311Z,24.27
2024-02-13T07:30:10.332Z,24.25
2024-02-13T07:31:10.301Z,24.26
2024-02-13T07:32:13.109Z,24.26
2024-02-13T07:33:10.455Z,24.23
2024-02-13T07:34:10.562Z,24.26
2024-02-13T07:35:10.306Z,24.25
2024-02-13T07:36:10.369Z,24.26
2024-02-13T07:37:10.334Z,24.26
2024-02-13T07:38:10.307Z,24.25
2024-02-13T07:39:10.367Z,24.26
2024-02-13T07:40:10.329Z,24.26
2024-02-13T07:41:10.395Z,24.25
2024-02-13T07:42:10.310Z,24.26
2024-02-13T07:43:10.306Z,24.26
2024-02-13T07:44:10.341Z,24.26
2024-02-13T07:45:10.352Z,24.25
2024-02-13T07:46:10.319Z,24.22
2024-02-13T07:47:10.330Z,24.25
2024-02-13T07:48:10.372Z,24.25
2024-02-13T07:49:10.425Z,24.25
2024-02-13T07:50:10.341Z,24.26
2024-02-13T07:51:10.348Z,24.23
2024-02-13T07:52:10.332Z,24.27
2024-02-13T07:53:10.365Z,24.26
2024-02-13T07:54:10.314Z,24.25
2024-02-13T07:55:11.905Z,24.25
2024-02-13T07:56:10.329Z,24.26
2024-02-13T07:57:10.342Z,24.27
2024-02-13T07:58:10.340Z,24.29
2024-02-13T07:59:10.339Z,24.26
2024-02-13T08:00:10.343Z,24.26
2024-02-13T08:01:10.372Z,24.25
2024-02-13T08:02:10.370Z,24.25
2024-02-13T08:03:10.380Z,24.26
2024-02-13T08:04:10.387Z,24.27
2024-02-13T08:05:10.381Z,24.23
2024-02-13T08:06:10.410Z,24.27
2024-02-13T08:07:10.643Z,24.23
2024-02-13T08:08:10.427Z,24.25
2024-02-13T08:09:10.338Z,24.29
2024-02-13T08:10:10.396Z,24.26
2024-02-13T08:11:10.363Z,24.26
2024-02-13T08:12:10.339Z,24.26
2024-02-13T08:13:10.441Z,24.26
2024-02-13T08:14:10.336Z,24.26
2024-02-13T08:15:10.385Z,24.25
2024-02-13T08:16:10.367Z,24.27
2024-02-13T08:17:10.358Z,24.27
2024-02-13T08:18:10.471Z,24.26
2024-02-13T08:19:10.427Z,24.25
2024-02-13T08:20:10.628Z,24.27
2024-02-13T08:21:10.426Z,24.26
2024-02-13T08:22:10.371Z,24.29
2024-02-13T08:23:10.359Z,24.27
2024-02-13T08:24:10.416Z,24.29
2024-02-13T08:25:10.432Z,24.27
2024-02-13T08:26:10.391Z,24.30
2024-02-13T08:27:10.391Z,24.29
2024-02-13T08:28:10.402Z,24.32
2024-02-13T08:29:10.397Z,24.30
2024-02-13T08:30:10.541Z,24.32
2024-02-13T08:31:10.387Z,24.32
2024-02-13T08:32:10.425Z,24.33
2024-02-13T08:33:10.575Z,24.33
2024-02-13T08:34:10.707Z,24.33
2024-02-13T08:35:10.445Z,24.34
2024-02-13T08:36:10.467Z,24.34
2024-02-13T08:37:10.425Z,24.34
2024-02-13T08:38:10.413Z,24.37
2024-02-13T08:39:10.418Z,24.37
2024-02-13T08:40:10.431Z,24.36
2024-02-13T08:41:10.427Z,24.37
2024-02-13T08:42:10.402Z,24.34
2024-02-13T08:43:10.414Z,24.39
2024-02-13T08:44:10.426Z,24.39
2024-02-13T08:45:10.414Z,24.39
2024-02-13T08:46:10.403Z,24.39
2024-02-13T08:47:10.411Z,24.37
2024-02-13T08:48:10.551Z,24.39
2024-02-13T08:49:10.592Z,24.37
2024-02-13T08:50:10.578Z,24.36
2024-02-13T08:51:10.503Z,24.37
2024-02-13T08:52:10.442Z,24.37
2024-02-13T08:53:10.419Z,24.36
2024-02-13T08:54:10.420Z,24.36
2024-02-13T08:55:10.412Z,24.36
2024-02-13T08:56:10.422Z,24.36
2024-02-13T08:57:10.429Z,24.36
2024-02-13T08:58:10.397Z,24.34
2024-02-13T08:59:10.462Z,24.37
2024-02-13T09:00:10.546Z,24.36
2024-02-13T09:01:10.497Z,24.36
2024-02-13T09:02:10.461Z,24.34
2024-02-13T09:03:10.517Z,24.34
2024-02-13T09:04:10.667Z,24.36
2024-02-13T09:05:10.868Z,24.34
2024-02-13T09:06:10.866Z,24.33
2024-02-13T09:07:10.808Z,24.33
2024-02-13T09:08:10.871Z,24.36
2024-02-13T09:09:10.949Z,24.39
2024-02-13T09:10:10.965Z,24.39
2024-02-13T09:11:11.033Z,24.39
2024-02-13T09:12:11.131Z,24.40
2024-02-13T09:13:11.244Z,24.42
2024-02-13T09:14:11.256Z,24.40
2024-02-13T09:15:11.379Z,24.42
2024-02-13T09:16:13.335Z,24.42
2024-02-13T09:17:11.453Z,24.43
2024-02-13T09:18:11.555Z,24.39
2024-02-13T09:19:11.616Z,24.42
2024-02-13T09:20:11.410Z,24.42
2024-02-13T09:21:11.809Z,24.44
2024-02-13T09:22:11.414Z,24.43
2024-02-13T09:23:11.450Z,24.42
2024-02-13T09:24:11.429Z,24.44
2024-02-13T09:25:11.437Z,24.43
2024-02-13T09:26:11.408Z,24.44
2024-02-13T09:27:11.416Z,24.44
2024-02-13T09:28:11.463Z,24.46
2024-02-13T09:29:11.430Z,24.43
2024-02-13T09:30:11.891Z,24.44
2024-02-13T09:31:11.487Z,24.44
2024-02-13T09:32:11.455Z,24.46
2024-02-13T09:33:11.615Z,24.46
2024-02-13T09:34:11.617Z,24.44
2024-02-13T09:35:11.457Z,24.46
2024-02-13T09:36:11.463Z,24.47
2024-02-13T09:37:11.477Z,24.49
2024-02-13T09:38:11.488Z,24.47
2024-02-13T09:39:11.482Z,24.47
2024-02-13T09:40:11.428Z,24.47
2024-02-13T09:41:11.465Z,24.49
2024-02-13T09:42:11.463Z,24.47
2024-02-13T09:43:11.466Z,24.49
2024-02-13T09:44:11.465Z,24.49
2024-02-13T09:45:11.466Z,24.49
2024-02-13T09:46:11.482Z,24.50
2024-02-13T09:47:11.488Z,24.53
2024-02-13T09:48:11.633Z,24.50
2024-02-13T09:49:11.558Z,24.52
2024-02-13T09:50:11.477Z,24.54
2024-02-13T09:51:11.542Z,24.53
2024-02-13T09:52:11.560Z,24.52
2024-02-13T09:53:11.579Z,24.52
2024-02-13T09:54:11.691Z,24.54
2024-02-13T09:55:11.733Z,24.54
2024-02-13T09:56:11.773Z,24.57
2024-02-13T09:57:11.856Z,24.57
2024-02-13T09:58:11.918Z,24.57
2024-02-13T09:59:11.982Z,24.56
2024-02-13T10:00:12.019Z,24.57
2024-02-13T10:01:12.143Z,24.56
2024-02-13T10:02:12.124Z,24.59
2024-02-13T10:03:12.279Z,24.60
2024-02-13T10:04:12.361Z,24.60
2024-02-13T10:05:12.339Z,24.60
2024-02-13T10:06:12.687Z,24.62
2024-02-13T10:07:12.483Z,24.62
2024-02-13T10:08:12.512Z,24.64
2024-02-13T10:09:12.594Z,24.64
2024-02-13T10:10:12.670Z,24.66
2024-02-13T10:11:12.996Z,24.64
2024-02-13T10:12:12.763Z,24.64
2024-02-13T10:13:12.814Z,24.66
2024-02-13T10:14:12.939Z,24.66
2024-02-13T10:15:12.932Z,24.64
2024-02-13T10:16:12.972Z,24.67
2024-02-13T10:17:13.081Z,24.67
2024-02-13T10:18:13.319Z,24.67
2024-02-13T10:19:13.149Z,24.70
2024-02-13T10:20:13.448Z,24.71
2024-02-13T10:21:13.255Z,24.70
2024-02-13T10:22:13.309Z,24.71
2024-02-13T10:23:13.453Z,24.73
2024-02-13T10:24:13.613Z,24.71
2024-02-13T10:25:13.492Z,24.73
2024-02-13T10:26:13.555Z,24.74
2024-02-13T10:27:13.669Z,24.75
2024-02-13T10:28:13.657Z,24.73
2024-02-13T10:29:13.769Z,24.74
2024-02-13T10:30:13.724Z,24.75
2024-02-13T10:31:13.947Z,24.75
2024-02-13T10:32:13.876Z,24.77
2024-02-13T10:33:14.004Z,24.74
2024-02-13T10:34:13.955Z,24.78
2024-02-13T10:35:14.069Z,24.78
2024-02-13T10:36:14.070Z,24.80
2024-02-13T10:37:16.462Z,24.80
2024-02-13T10:38:14.110Z,24.80
2024-02-13T10:39:14.093Z,24.78
2024-02-13T10:40:14.064Z,24.81
2024-02-13T10:41:14.062Z,24.81
2024-02-13T10:42:14.084Z,24.81
2024-02-13T10:43:14.074Z,24.83
2024-02-13T10:44:14.129Z,24.85
2024-02-13T10:45:14.061Z,24.84
2024-02-13T10:46:14.074Z,24.85
2024-02-13T10:47:14.150Z,24.87
2024-02-13T10:48:14.191Z,24.87
2024-02-13T10:49:14.100Z,24.87
2024-02-13T10:50:14.190Z,24.85
2024-02-13T10:51:14.078Z,24.87
2024-02-13T10:52:14.063Z,24.87
2024-02-13T10:53:14.114Z,24.90
2024-02-13T10:54:14.083Z,24.88
2024-02-13T10:55:14.109Z,24.90
2024-02-13T10:56:14.110Z,24.91
2024-02-13T10:57:14.166Z,24.91
2024-02-13T10:58:21.259Z,24.91
2024-02-13T10:59:15.172Z,24.90
2024-02-13T11:00:14.122Z,24.93
2024-02-13T11:01:14.261Z,24.90
2024-02-13T11:02:14.219Z,24.87
2024-02-13T11:03:14.262Z,24.88
2024-02-13T11:04:14.162Z,24.90
2024-02-13T11:05:14.310Z,24.90
2024-02-13T11:06:14.366Z,24.88
2024-02-13T11:07:14.167Z,24.93
2024-02-13T11:08:14.150Z,24.95
2024-02-13T11:09:14.348Z,24.94
2024-02-13T11:10:14.152Z,24.98
2024-02-13T11:11:14.177Z,24.98
2024-02-13T11:12:15.067Z,24.99
2024-02-13T11:13:14.108Z,25.02
2024-02-13T11:14:14.135Z,25.02
2024-02-13T11:15:14.219Z,25.02
2024-02-13T11:16:14.107Z,25.02
2024-02-13T11:17:14.386Z,25.04
2024-02-13T11:18:14.376Z,25.05
2024-02-13T11:19:14.247Z,25.05
2024-02-13T11:20:14.360Z,24.98
2024-02-13T11:21:14.335Z,25.01
2024-02-13T11:22:14.305Z,25.01
2024-02-13T11:23:14.535Z,25.01
2024-02-13T11:24:14.393Z,25.02
2024-02-13T11:25:14.387Z,25.01
2024-02-13T11:26:14.548Z,24.99
2024-02-13T11:27:24.027Z,25.02
2024-02-13T11:28:15.545Z,24.99
2024-02-13T11:29:14.653Z,25.02
2024-02-13T11:30:14.525Z,25.02
2024-02-13T11:31:14.483Z,25.04
2024-02-13T11:32:14.532Z,25.01
2024-02-13T11:33:14.621Z,24.98
2024-02-13T11:34:15.068Z,24.99
2024-02-13T11:35:14.646Z,24.98
2024-02-13T11:36:14.579Z,24.97
2024-02-13T11:37:14.485Z,24.99
2024-02-13T11:38:14.507Z,24.97
2024-02-13T11:39:14.488Z,24.95
2024-02-13T11:40:14.928Z,24.95
2024-02-13T11:41:14.520Z,24.94
2024-02-13T11:42:14.519Z,24.97
2024-02-13T11:43:14.531Z,24.99
2024-02-13T11:44:14.573Z,24.98
2024-02-13T11:45:14.544Z,24.98
2024-02-13T11:46:14.591Z,24.99
2024-02-13T11:47:14.639Z,25.01
2024-02-13T11:48:14.795Z,24.99
2024-02-13T11:49:14.857Z,25.01
2024-02-13T11:50:14.938Z,25.02
2024-02-13T11:51:14.752Z,25.04
2024-02-13T11:52:14.803Z,25.02
2024-02-13T11:53:14.815Z,25.02
2024-02-13T11:54:14.853Z,24.99
2024-02-13T11:55:14.851Z,25.01
2024-02-13T11:56:14.966Z,24.98
2024-02-13T11:57:14.916Z,24.99
2024-02-13T11:58:14.948Z,24.98
2024-02-13T11:59:15.014Z,24.98
2024-02-13T12:00:15.065Z,24.98
2024-02-13T12:01:15.242Z,24.99
2024-02-13T12:02:15.205Z,24.98
2024-02-13T12:03:15.077Z,24.98
2024-02-13T12:04:15.160Z,24.98
2024-02-13T12:05:15.221Z,24.99
2024-02-13T12:06:15.211Z,25.02
2024-02-13T12:07:15.222Z,25.02
2024-02-13T12:08:15.275Z,25.05
2024-02-13T12:09:15.273Z,25.05
2024-02-13T12:10:15.293Z,25.07
2024-02-13T12:11:15.322Z,25.04
2024-02-13T12:12:15.316Z,25.07
2024-02-13T12:13:15.344Z,25.07
2024-02-13T12:14:15.421Z,25.07
2024-02-13T12:15:15.439Z,25.07
2024-02-13T12:16:15.476Z,25.05
2024-02-13T12:17:15.459Z,25.10
2024-02-13T12:18:15.529Z,25.05
2024-02-13T12:19:15.528Z,25.11
2024-02-13T12:20:15.576Z,25.08
2024-02-13T12:21:15.512Z,25.10
2024-02-13T12:22:15.553Z,25.10
2024-02-13T12:23:15.721Z,25.12
2024-02-13T12:24:15.650Z,25.10
2024-02-13T12:25:15.650Z,25.11
2024-02-13T12:26:15.673Z,25.11
2024-02-13T12:27:15.660Z,25.10
2024-02-13T12:28:15.649Z,25.11
2024-02-13T12:29:15.774Z,25.10
2024-02-13T12:30:15.757Z,25.10
2024-02-13T12:31:15.745Z,25.10
2024-02-13T12:32:15.786Z,25.07
2024-02-13T12:33:15.916Z,25.11
2024-02-13T12:34:16.059Z,25.10
2024-02-13T12:35:15.894Z,25.11
2024-02-13T12:36:15.906Z,25.11
2024-02-13T12:37:15.830Z,25.11
2024-02-13T12:38:16.431Z,25.14
2024-02-13T12:39:15.916Z,25.11
2024-02-13T12:40:15.939Z,25.12
2024-02-13T12:41:16.015Z,25.15
2024-02-13T12:42:15.949Z,25.15
2024-02-13T12:43:17.553Z,25.15
2024-02-13T12:44:16.029Z,25.15
2024-02-13T12:45:16.006Z,25.12
2024-02-13T12:46:15.988Z,25.17
2024-02-13T12:47:16.048Z,25.15
2024-02-13T12:48:16.185Z,25.15
2024-02-13T12:49:16.158Z,25.14
2024-02-13T12:50:16.255Z,25.15
2024-02-13T12:51:16.125Z,25.15
2024-02-13T12:52:16.088Z,25.17
2024-02-13T12:53:16.114Z,25.17